createdAt,value
2022-08-03T00:01:31.103Z,3.60
2022-08-03T00:04:34.201Z,5.15
2022-08-03T00:07:36.234Z,4.28
2022-08-03T00:10:38.435Z,3.88
2022-08-03T00:13:40.397Z,3.60
2022-08-03T00:16:41.995Z,4.53
2022-08-03T00:19:43.840Z,4.75
2022-08-03T00:22:45.904Z,5.85
2022-08-03T00:25:47.868Z,3.63
2022-08-03T00:28:50.555Z,4.03
2022-08-03T00:31:59.462Z,3.53
2022-08-03T00:35:07.956Z,3.85
2022-08-03T00:38:11.050Z,4.30
2022-08-03T00:41:12.641Z,4.53
2022-08-03T00:44:17.576Z,4.53
2022-08-03T00:47:19.225Z,3.80
2022-08-03T00:50:23.534Z,4.20
2022-08-03T00:53:26.011Z,5.30
2022-08-03T00:56:27.841Z,6.18
2022-08-03T00:59:30.705Z,4.03
2022-08-03T01:02:33.213Z,4.63
2022-08-03T01:06:05.075Z,3.58
2022-08-03T01:09:27.034Z,3.85
2022-08-03T01:12:47.607Z,5.00
2022-08-03T01:16:36.836Z,5.40
2022-08-03T01:19:45.265Z,3.97
2022-08-03T01:22:53.254Z,4.07
2022-08-03T01:26:36.736Z,4.15
2022-08-03T01:29:47.480Z,4.22
2022-08-03T01:33:15.996Z,3.88
2022-08-03T01:36:24.804Z,3.92
2022-08-03T01:39:29.626Z,4.80
2022-08-03T01:42:33.595Z,5.53
2022-08-03T01:45:36.934Z,3.88
2022-08-03T01:48:42.176Z,4.05
2022-08-03T01:52:02.680Z,4.50
2022-08-03T01:55:08.362Z,4.22
2022-08-03T01:58:12.501Z,4.18
2022-08-03T02:01:19.009Z,5.05
2022-08-03T02:04:22.722Z,4.57
2022-08-03T02:07:27.014Z,4.00
2022-08-03T02:10:35.556Z,4.18
2022-08-03T02:13:39.484Z,5.00
2022-08-03T02:16:43.393Z,5.65
2022-08-03T02:19:46.271Z,5.38
2022-08-03T02:22:48.389Z,4.00
2022-08-03T02:26:01.860Z,4.20
2022-08-03T02:29:09.355Z,7.57
2022-08-03T02:32:20.302Z,4.38
2022-08-03T02:35:25.661Z,4.03
2022-08-03T02:38:33.174Z,4.07
2022-08-03T02:41:43.689Z,4.20
2022-08-03T02:44:50.073Z,5.07
2022-08-03T02:47:55.502Z,4.20
2022-08-03T02:50:58.596Z,5.13
2022-08-03T02:54:04.404Z,4.00
2022-08-03T02:57:09.662Z,6.35
2022-08-03T03:00:12.786Z,5.30
2022-08-03T03:03:22.633Z,4.78
2022-08-03T03:06:29.309Z,4.45
2022-08-03T03:09:41.856Z,4.43
2022-08-03T03:12:46.724Z,3.65
2022-08-03T03:15:49.772Z,5.60
2022-08-03T03:18:52.141Z,5.13
2022-08-03T03:21:55.535Z,4.25
2022-08-03T03:24:57.644Z,5.95
2022-08-03T03:28:01.272Z,4.40
2022-08-03T03:31:05.872Z,4.32
2022-08-03T03:34:08.335Z,5.50
2022-08-03T03:37:10.276Z,4.65
2022-08-03T03:40:12.450Z,4.45
2022-08-03T03:43:14.187Z,4.63
2022-08-03T03:46:16.203Z,5.40
2022-08-03T03:49:17.938Z,4.57
2022-08-03T03:52:19.771Z,5.32
2022-08-03T03:55:21.590Z,4.28
2022-08-03T03:58:23.328Z,4.25
2022-08-03T04:01:26.760Z,7.35
2022-08-03T04:04:47.096Z,6.10
2022-08-03T04:08:17.696Z,6.22
2022-08-03T04:11:31.802Z,5.15
2022-08-03T04:14:35.987Z,4.25
2022-08-03T04:17:38.939Z,5.35
2022-08-03T04:20:45.648Z,4.10
2022-08-03T04:23:53.171Z,4.35
2022-08-03T04:26:57.309Z,5.10
2022-08-03T04:30:02.552Z,4.85
2022-08-03T04:33:05.343Z,4.10
2022-08-03T04:36:09.758Z,5.22
2022-08-03T04:39:18.253Z,3.78
2022-08-03T04:42:22.563Z,4.30
2022-08-03T04:45:25.054Z,5.43
2022-08-03T04:48:27.729Z,4.15
2022-08-03T04:51:30.272Z,3.50
2022-08-03T04:54:39.765Z,3.85
2022-08-03T04:57:41.582Z,4.73
2022-08-03T05:00:43.366Z,5.40
2022-08-03T05:03:45.266Z,3.97
2022-08-03T05:06:48.112Z,5.10
2022-08-03T05:10:01.333Z,4.32
2022-08-03T05:13:05.137Z,4.68
2022-08-03T05:16:07.277Z,4.30
2022-08-03T05:19:09.071Z,4.28
2022-08-03T05:22:11.037Z,3.97
2022-08-03T05:25:17.084Z,4.47
2022-08-03T05:28:21.833Z,3.92
2022-08-03T05:31:23.720Z,3.95
2022-08-03T05:34:25.644Z,3.78
2022-08-03T05:37:27.435Z,7.47
2022-08-03T05:40:29.226Z,4.88
2022-08-03T05:43:32.088Z,5.55
2022-08-03T05:46:33.912Z,3.75
2022-08-03T05:49:35.905Z,9.65
2022-08-03T05:52:38.697Z,2.97
2022-08-03T05:55:40.742Z,6.45
2022-08-03T05:58:44.459Z,4.10
2022-08-03T06:01:46.846Z,7.35
2022-08-03T06:04:48.607Z,4.97
2022-08-03T06:07:51.330Z,4.90
2022-08-03T06:10:53.166Z,3.55
2022-08-03T06:13:55.212Z,8.63
2022-08-03T06:16:56.951Z,3.50
2022-08-03T06:19:58.729Z,4.53
2022-08-03T06:23:01.135Z,4.53
2022-08-03T06:26:03.417Z,3.70
2022-08-03T06:29:05.318Z,4.50
2022-08-03T06:32:10.570Z,3.38
2022-08-03T06:35:12.343Z,4.70
2022-08-03T06:38:14.228Z,3.15
2022-08-03T06:41:16.033Z,4.82
2022-08-03T06:44:18.014Z,3.53
2022-08-03T06:47:19.880Z,4.88
2022-08-03T06:50:26.005Z,3.70
2022-08-03T06:53:28.078Z,4.18
2022-08-03T06:56:29.988Z,2.70
2022-08-03T07:00:10.363Z,3.80
2022-08-03T07:02:58.120Z,4.50
2022-08-03T07:06:03.492Z,3.03
2022-08-03T07:09:05.281Z,5.10
2022-08-03T07:12:07.539Z,3.55
2022-08-03T07:15:20.167Z,3.28
2022-08-03T07:18:31.750Z,4.93
2022-08-03T07:21:33.658Z,5.10
2022-08-03T07:24:35.521Z,3.15
2022-08-03T07:27:38.331Z,3.15
2022-08-03T07:30:40.224Z,4.30
2022-08-03T07:33:42.226Z,3.05
2022-08-03T07:36:44.129Z,2.75
2022-08-03T07:39:45.906Z,5.15
2022-08-03T07:42:47.945Z,3.35
2022-08-03T07:45:55.099Z,5.78
2022-08-03T07:48:57.124Z,3.53
2022-08-03T07:52:17.802Z,2.22
2022-08-03T07:55:21.930Z,2.97
2022-08-03T07:58:24.587Z,5.13
2022-08-03T08:01:26.601Z,2.38
2022-08-03T08:04:28.405Z,3.58
2022-08-03T08:07:30.381Z,4.72
2022-08-03T08:10:33.217Z,3.28
2022-08-03T08:13:35.340Z,2.22
2022-08-03T08:16:37.240Z,2.80
2022-08-03T08:19:41.497Z,2.83
2022-08-03T08:22:53.096Z,6.10
2022-08-03T08:25:54.946Z,2.15
2022-08-03T08:28:56.892Z,3.45
2022-08-03T08:31:58.477Z,4.82
2022-08-03T08:35:00.414Z,3.22
2022-08-03T08:38:05.576Z,4.13
2022-08-03T08:41:08.800Z,2.60
2022-08-03T08:44:10.738Z,4.30
2022-08-03T08:47:13.290Z,2.88
2022-08-03T08:50:27.192Z,3.60
2022-08-03T08:53:30.315Z,3.08
2022-08-03T08:56:33.903Z,3.78
2022-08-03T08:59:48.534Z,2.58
2022-08-03T09:02:51.567Z,5.72
2022-08-03T09:05:56.062Z,6.47
2022-08-03T09:08:58.314Z,1.73
2022-08-03T09:12:20.020Z,2.38
2022-08-03T09:15:34.240Z,2.40
2022-08-03T09:18:36.300Z,3.67
2022-08-03T09:21:38.233Z,4.20
2022-08-03T09:25:23.229Z,3.10
2022-08-03T09:29:01.557Z,2.97
2022-08-03T09:32:06.578Z,6.63
2022-08-03T09:35:09.473Z,5.47
2022-08-03T09:38:14.344Z,6.45
2022-08-03T09:41:22.064Z,4.30
2022-08-03T09:44:36.053Z,3.72
2022-08-03T09:47:45.160Z,2.70
2022-08-03T09:50:58.495Z,4.50
2022-08-03T09:54:29.420Z,3.55
2022-08-03T09:57:31.172Z,2.03
2022-08-03T10:00:32.932Z,3.15
2022-08-03T10:03:36.323Z,2.75
2022-08-03T10:07:13.246Z,2.35
2022-08-03T10:10:30.318Z,2.15
2022-08-03T10:13:34.252Z,2.10
2022-08-03T10:16:40.477Z,1.92
2022-08-03T10:19:42.282Z,2.50
2022-08-03T10:22:44.080Z,2.90
2022-08-03T10:25:59.243Z,3.88
2022-08-03T10:29:03.857Z,3.65
2022-08-03T10:32:14.620Z,3.88
2022-08-03T10:35:21.404Z,4.47
2022-08-03T10:38:36.057Z,3.95
2022-08-03T10:41:42.676Z,4.03
2022-08-03T10:44:44.736Z,2.45
2022-08-03T10:47:51.890Z,2.30
2022-08-03T10:50:54.152Z,3.55
2022-08-03T10:53:56.001Z,7.57
2022-08-03T10:57:18.545Z,2.75
2022-08-03T11:00:24.798Z,2.83
2022-08-03T11:03:26.585Z,8.35
2022-08-03T11:06:28.501Z,2.60
2022-08-03T11:09:48.566Z,2.92
2022-08-03T11:12:50.825Z,4.38
2022-08-03T11:16:01.621Z,3.30
2022-08-03T11:19:07.292Z,2.58
2022-08-03T11:22:09.897Z,6.88
2022-08-03T11:25:53.561Z,4.40
2022-08-03T11:28:39.811Z,2.55
2022-08-03T11:31:50.708Z,1.70
2022-08-03T11:35:09.965Z,2.05
2022-08-03T11:38:12.624Z,3.38
2022-08-03T11:41:33.741Z,3.38
2022-08-03T11:44:47.443Z,3.03
2022-08-03T11:47:53.945Z,5.30
2022-08-03T11:50:57.383Z,4.18
2022-08-03T11:54:01.765Z,2.03
2022-08-03T11:57:03.930Z,7.63
2022-08-03T12:00:26.013Z,2.17
2022-08-03T12:03:33.160Z,3.60
2022-08-03T12:06:54.937Z,3.65
2022-08-03T12:10:06.499Z,1.75
2022-08-03T12:14:45.803Z,2.33
2022-08-03T12:16:33.408Z,3.05
2022-08-03T12:19:47.608Z,2.85
2022-08-03T12:22:49.684Z,3.65
2022-08-03T12:25:51.569Z,2.10
2022-08-03T12:28:53.498Z,3.20
2022-08-03T12:31:56.310Z,3.80
2022-08-03T12:35:04.389Z,2.85
2022-08-03T12:38:07.473Z,2.85
2022-08-03T12:41:17.029Z,2.95
2022-08-03T12:44:19.274Z,2.17
2022-08-03T12:47:21.338Z,3.70
2022-08-03T12:50:31.590Z,4.15
2022-08-03T12:53:33.787Z,3.38
2022-08-03T12:56:35.846Z,3.72
2022-08-03T12:59:52.784Z,2.25
2022-08-03T13:06:29.849Z,1.85
2022-08-03T13:09:44.446Z,1.80
2022-08-03T13:12:50.065Z,2.13
2022-08-03T13:15:52.345Z,3.42
2022-08-03T13:18:54.503Z,2.38
2022-08-03T13:22:03.746Z,3.90
2022-08-03T13:25:06.884Z,2.05
2022-08-03T13:28:13.785Z,2.20
2022-08-03T13:31:16.224Z,5.30
2022-08-03T13:34:23.028Z,1.70
2022-08-03T13:37:26.726Z,3.22
2022-08-03T13:40:33.468Z,2.20
2022-08-03T13:43:40.210Z,1.50
2022-08-03T13:46:42.212Z,2.30
2022-08-03T13:50:00.515Z,2.30
2022-08-03T13:53:04.649Z,3.90
2022-08-03T13:56:07.622Z,2.90
2022-08-03T13:59:11.232Z,2.97
2022-08-03T14:02:13.163Z,2.28
2022-08-03T14:05:15.048Z,1.83
2022-08-03T14:08:17.047Z,2.95
2022-08-03T14:11:19.062Z,3.13
2022-08-03T14:14:20.916Z,2.20
2022-08-03T14:17:23.956Z,3.05
2022-08-03T14:20:37.959Z,3.47
2022-08-03T14:23:49.789Z,2.75
2022-08-03T14:26:51.545Z,2.03
2022-08-03T14:29:53.470Z,1.92
2022-08-03T14:32:57.965Z,1.90
2022-08-03T14:36:02.656Z,3.97
2022-08-03T14:39:05.799Z,2.53
2022-08-03T14:42:07.941Z,2.65
2022-08-03T14:45:20.000Z,2.28
2022-08-03T14:50:12.573Z,2.50
2022-08-03T14:51:51.514Z,2.22
2022-08-03T14:54:55.785Z,3.17
2022-08-03T14:57:57.689Z,2.25
2022-08-03T15:00:59.632Z,2.58
2022-08-03T15:04:01.432Z,1.88
2022-08-03T15:07:03.447Z,4.18
2022-08-03T15:10:05.541Z,1.77
2022-08-03T15:13:07.398Z,2.83
2022-08-03T15:16:09.936Z,2.10
2022-08-03T15:20:00.774Z,3.70
2022-08-03T15:22:35.224Z,4.47
2022-08-03T15:26:29.355Z,3.47
2022-08-03T15:28:59.784Z,2.97
2022-08-03T15:32:04.000Z,1.50
2022-08-03T15:35:08.975Z,5.72
2022-08-03T15:38:10.868Z,3.75
2022-08-03T15:41:15.874Z,3.38
2022-08-03T15:44:21.319Z,2.95
2022-08-03T15:47:23.173Z,2.17
2022-08-03T15:50:24.968Z,2.80
2022-08-03T15:53:26.882Z,2.15
2022-08-03T15:56:28.612Z,1.92
2022-08-03T15:59:30.541Z,3.42
2022-08-03T16:02:32.994Z,1.63
2022-08-03T16:05:35.123Z,2.25
2022-08-03T16:08:36.761Z,4.57
2022-08-03T16:11:38.637Z,5.63
2022-08-03T16:14:51.500Z,2.50
2022-08-03T16:17:54.799Z,2.88
2022-08-03T16:20:57.698Z,4.43
2022-08-03T16:24:00.535Z,1.90
2022-08-03T16:27:03.894Z,4.03
2022-08-03T16:30:08.829Z,2.17
2022-08-03T16:33:16.832Z,3.35
2022-08-03T16:36:19.567Z,1.83
2022-08-03T16:39:21.415Z,3.78
2022-08-03T16:42:23.047Z,3.75
2022-08-03T16:45:25.132Z,2.03
2022-08-03T16:48:27.257Z,3.83
2022-08-03T16:51:40.379Z,2.30
2022-08-03T16:54:52.739Z,2.05
2022-08-03T16:57:58.911Z,3.22
2022-08-03T17:01:10.923Z,2.78
2022-08-03T17:04:23.819Z,1.80
2022-08-03T17:07:25.862Z,2.38
2022-08-03T17:10:32.622Z,2.88
2022-08-03T17:13:39.707Z,2.67
2022-08-03T17:16:52.734Z,3.03
2022-08-03T17:19:57.755Z,5.30
2022-08-03T17:23:41.069Z,2.53
2022-08-03T17:26:46.442Z,3.28
2022-08-03T17:29:59.596Z,5.07
2022-08-03T17:33:01.437Z,3.10
2022-08-03T17:36:04.013Z,3.00
2022-08-03T17:39:07.584Z,4.03
2022-08-03T17:42:29.109Z,3.20
2022-08-03T17:48:57.329Z,2.40
2022-08-03T17:52:06.586Z,2.28
2022-08-03T17:55:56.226Z,7.00
2022-08-03T17:59:08.564Z,1.90
2022-08-03T18:02:51.515Z,2.78
2022-08-03T18:06:11.943Z,3.22
2022-08-03T18:10:03.731Z,4.50
2022-08-03T18:12:51.609Z,4.03
2022-08-03T18:16:01.330Z,3.67
2022-08-03T18:19:09.705Z,4.03
2022-08-03T18:22:16.535Z,2.30
2022-08-03T18:25:45.579Z,1.65
2022-08-03T18:28:43.987Z,2.75
2022-08-03T18:32:02.760Z,1.70
2022-08-03T18:35:07.972Z,2.08
2022-08-03T18:38:18.849Z,2.63
2022-08-03T18:41:33.292Z,5.05
2022-08-03T18:44:46.622Z,2.72
2022-08-03T18:48:05.051Z,2.17
2022-08-03T18:51:24.180Z,4.07
2022-08-03T18:55:02.791Z,5.55
2022-08-03T18:58:15.944Z,6.00
2022-08-03T19:01:57.805Z,14.27
2022-08-03T19:04:48.554Z,17.65
2022-08-03T19:08:04.700Z,19.10
2022-08-03T19:11:12.295Z,11.98
2022-08-03T19:14:20.794Z,15.60
2022-08-03T19:17:36.026Z,18.40
2022-08-03T19:20:41.518Z,16.80
2022-08-03T19:23:49.103Z,15.65
2022-08-03T19:26:52.143Z,11.15
2022-08-03T19:29:58.358Z,7.97
2022-08-03T19:33:09.990Z,4.07
2022-08-03T19:36:13.893Z,5.53
2022-08-03T19:39:17.537Z,5.00
2022-08-03T19:42:29.865Z,4.55
2022-08-03T19:45:52.659Z,3.58
2022-08-03T19:49:10.724Z,4.93
2022-08-03T19:52:24.162Z,5.85
2022-08-03T19:55:28.843Z,5.18
2022-08-03T19:58:38.032Z,4.55
2022-08-03T20:01:50.358Z,4.70
2022-08-03T20:04:57.615Z,6.78
2022-08-03T20:08:07.139Z,3.08
2022-08-03T20:11:12.140Z,3.95
2022-08-03T20:17:56.087Z,4.85
2022-08-03T20:21:05.385Z,3.13
2022-08-03T20:24:23.717Z,8.35
2022-08-03T20:27:30.191Z,6.30
2022-08-03T20:30:32.575Z,5.07
2022-08-03T20:33:48.467Z,8.52
2022-08-03T20:36:51.645Z,5.75
2022-08-03T20:39:54.559Z,8.80
2022-08-03T20:42:56.545Z,9.00
2022-08-03T20:46:32.006Z,7.47
2022-08-03T20:49:23.113Z,4.28
2022-08-03T20:52:28.246Z,4.50
2022-08-03T20:55:47.676Z,6.10
2022-08-03T20:58:59.949Z,6.20
2022-08-03T21:02:13.346Z,6.93
2022-08-03T21:05:47.649Z,4.38
2022-08-03T21:09:00.209Z,5.82
2022-08-03T21:12:10.192Z,5.60
2022-08-03T21:13:03.679Z,5.70
2022-08-03T21:13:04.018Z,2.05
2022-08-03T21:16:03.239Z,5.22
2022-08-03T21:18:50.361Z,2.80
2022-08-03T21:21:55.341Z,10.13
2022-08-03T21:24:59.523Z,4.15
2022-08-03T21:28:02.094Z,2.60
2022-08-03T21:31:04.627Z,7.50
2022-08-03T21:34:09.488Z,5.60
2022-08-03T21:37:15.814Z,4.07
2022-08-03T21:40:17.727Z,4.28
2022-08-03T21:43:20.158Z,2.63
2022-08-03T21:46:22.976Z,2.65
2022-08-03T21:50:04.560Z,4.95
2022-08-03T21:52:51.901Z,3.17
2022-08-03T21:56:16.389Z,3.47
2022-08-03T21:59:20.095Z,5.60
2022-08-03T22:02:26.882Z,6.55
2022-08-03T22:05:43.978Z,5.15
2022-08-03T22:08:47.684Z,6.38
2022-08-03T22:11:54.529Z,3.55
2022-08-03T22:15:02.245Z,3.00
2022-08-03T22:18:04.929Z,4.75
2022-08-03T22:21:09.004Z,5.50
2022-08-03T22:24:11.670Z,6.50
2022-08-03T22:27:33.159Z,6.78
2022-08-03T22:30:36.016Z,5.07
2022-08-03T22:33:42.497Z,4.70
2022-08-03T22:36:44.877Z,3.78
2022-08-03T22:39:47.271Z,5.60
2022-08-03T22:42:52.639Z,4.50
2022-08-03T22:46:09.426Z,4.43
2022-08-03T22:49:15.191Z,3.72
2022-08-03T22:52:17.672Z,6.35
2022-08-03T22:55:24.755Z,4.32
2022-08-03T22:58:26.732Z,5.40
2022-08-03T23:01:28.995Z,5.03
2022-08-03T23:04:35.183Z,3.45
2022-08-03T23:07:39.512Z,3.95
2022-08-03T23:10:46.951Z,3.17
2022-08-03T23:13:54.154Z,4.65
2022-08-03T23:16:59.910Z,3.67
2022-08-03T23:20:08.093Z,4.50
2022-08-03T23:23:13.431Z,6.20
2022-08-03T23:26:17.040Z,2.47
2022-08-03T23:29:20.480Z,5.50
2022-08-03T23:32:25.831Z,3.45
2022-08-03T23:36:27.739Z,5.95
2022-08-03T23:39:09.143Z,6.43
2022-08-03T23:42:15.088Z,3.25
2022-08-03T23:45:20.636Z,3.25
2022-08-03T23:48:22.584Z,4.78
2022-08-03T23:52:06.410Z,4.53
2022-08-03T23:55:30.220Z,9.60
2022-08-03T23:58:39.695Z,4.45
